Aeroporto :
LOGIN :

Iscrizione | Disclaimer

   EN    FR    IT 

 










Sommario :    VFR   VFR Marginale   IFR   IFR Intensivo   IFR Molto Intensivo
Visibilità : 
Base nubi : 
>= 8 km
>= 3000ft
5 / 8 km
1000 / 3000 ft
1500m / 5 km
500 / 1000 ft
800 / 1500m
200 / 500 ft
< 800m
< 200 ft
Simboli :   Temporali  Nebbia  Neve Forte  Precipitazioni Forti  Vento > 20 kt
SIGMETs :   Varie  Temporali  Ghiacco  Turbolenza  Onda orograficha  Ceneri Vulcaniche






- Altitudine del aeroporto : 277 ft
- Codice IATA : JER


EGJJ - Jersey

ULTIMO METAR :
  • 171150Z 26029G39KT 9999 VCSH FEW020CB 09/06 Q1016

METARs OBSOLETI :
  • 171120Z 25028KT 9999 VCSH FEW020CB 09/05 Q1015 RESHRA
  • 171050Z 24024KT 9999 FEW020CB SCT030 09/05 Q1015
  • 171020Z 24021KT 9999 VCSH FEW020CB 09/05 Q1015
  • 170950Z 23022G32KT 9999 VCSH FEW020CB SCT028 08/04 Q1014
  • 170920Z 23021KT 9999 FEW020 SCT028 08/04 Q1014

TAF TAF EGJJ
Valido dal 17 a 12 ore il 17 a 21 ore UTC


171102Z 1712/1721 25022KT 9999 FEW015CB SCT025
TEMPO 1712/1719 27026G40KT 6000 SHRA BKN012CB
PROB30
TEMPO 1712/1719 3000 TSRAGS
PROB30
TEMPO 1719/1721 8000 SHRA BKN015
ATIS : +44 1534 498 073



MetMap, La meteo Aeronautica in un colpo d'occhio ! - Copyright ORBIFLY Dicembre 2007 - Disclaimer

ORBIFLY MET'MAP TEAM :

Programmazione e sviluppo : Alexandra Zaïnal
Concezione : Baudouin d'Aumeries
Aiuto per la programmazione : Marc-Olivier Méhu
Supporto tecnico e logistico : Manuel Goepfert
Aiuto per la traduzione : Arnaldo La Scala

Contatto : metmap@orbifly.com




FONTI E CREDITI :

   NOAA